createdAt,value
2023-01-26T00:00:25.626Z,21.85
2023-01-26T00:15:27.591Z,25.88
2023-01-26T00:30:29.651Z,22.10
2023-01-26T00:45:31.908Z,23.38
2023-01-26T01:00:35.352Z,23.25
2023-01-26T01:15:39.152Z,25.50
2023-01-26T01:30:41.528Z,25.77
2023-01-26T01:45:46.301Z,25.55
2023-01-26T02:00:48.500Z,25.63
2023-01-26T02:15:51.810Z,26.40
2023-01-26T02:30:56.089Z,30.48
2023-01-26T02:45:58.280Z,27.90
2023-01-26T03:01:00.263Z,31.38
2023-01-26T03:16:07.216Z,29.17
2023-01-26T03:31:09.327Z,31.95
2023-01-26T03:46:30.180Z,34.42
2023-01-26T04:01:33.203Z,33.65
2023-01-26T04:16:53.618Z,27.88
2023-01-26T04:31:55.598Z,25.73
2023-01-26T04:46:57.621Z,24.02
2023-01-26T05:01:59.893Z,24.40
2023-01-26T05:17:02.012Z,24.27
2023-01-26T05:32:04.177Z,24.70
2023-01-26T05:47:06.420Z,25.67
2023-01-26T06:02:09.704Z,27.25
2023-01-26T06:17:12.242Z,29.48
2023-01-26T06:32:15.053Z,26.00
2023-01-26T06:47:17.008Z,28.02
2023-01-26T07:02:21.680Z,25.33
2023-01-26T07:17:23.664Z,30.00
2023-01-26T07:32:25.621Z,42.55
2023-01-26T07:47:28.031Z,36.47
2023-01-26T08:02:30.009Z,33.55
2023-01-26T08:17:34.130Z,39.28
2023-01-26T08:32:36.216Z,32.92
2023-01-26T08:47:38.194Z,29.63
2023-01-26T09:02:40.276Z,28.52
2023-01-26T09:17:43.278Z,24.73
2023-01-26T09:32:45.213Z,25.27
2023-01-26T09:47:56.146Z,24.25
2023-01-26T10:03:05.399Z,24.88
2023-01-26T10:18:21.767Z,23.98
2023-01-26T10:33:35.470Z,23.80
2023-01-26T10:48:37.736Z,23.17
2023-01-26T11:03:40.343Z,25.77
2023-01-26T11:18:59.227Z,23.67
2023-01-26T11:34:27.992Z,25.83
2023-01-26T11:49:45.036Z,28.73
2023-01-26T12:04:48.171Z,28.73
2023-01-26T12:20:11.999Z,29.25
2023-01-26T12:35:14.382Z,30.02
2023-01-26T12:50:25.269Z,27.90
2023-01-26T13:05:35.728Z,27.05
2023-01-26T13:20:41.083Z,29.67
2023-01-26T13:35:44.609Z,33.65
2023-01-26T13:50:50.217Z,28.98
2023-01-26T14:06:09.218Z,30.25
2023-01-26T14:21:21.551Z,27.25
2023-01-26T14:36:26.107Z,26.83
2023-01-26T14:51:29.445Z,27.75
2023-01-26T15:06:32.145Z,27.55
2023-01-26T15:21:40.000Z,30.60
2023-01-26T15:36:50.852Z,31.77
2023-01-26T15:51:54.160Z,30.45
2023-01-26T16:06:56.579Z,28.45
2023-01-26T16:21:59.951Z,29.15
2023-01-26T16:37:03.516Z,32.45
2023-01-26T16:52:05.738Z,35.58
2023-01-26T17:07:08.305Z,32.17
2023-01-26T17:22:10.612Z,43.08
2023-01-26T17:37:12.623Z,42.28
2023-01-26T17:52:14.601Z,47.33
2023-01-26T18:07:16.604Z,44.15
2023-01-26T18:22:18.794Z,32.88
2023-01-26T18:37:21.275Z,36.47
2023-01-26T18:52:24.115Z,38.55
2023-01-26T19:07:26.185Z,41.03
2023-01-26T19:22:28.235Z,40.00
2023-01-26T19:37:30.371Z,36.60
2023-01-26T19:52:32.674Z,38.53
2023-01-26T20:07:34.785Z,39.17
2023-01-26T20:22:37.454Z,38.90
2023-01-26T20:37:40.116Z,44.80
2023-01-26T20:52:43.772Z,45.45
2023-01-26T21:07:46.362Z,46.63
2023-01-26T21:22:48.427Z,45.58
2023-01-26T21:37:50.720Z,47.45
2023-01-26T21:52:58.754Z,46.15
2023-01-26T22:08:00.920Z,54.42
2023-01-26T22:23:06.301Z,49.63
2023-01-26T22:38:08.332Z,49.13
2023-01-26T22:53:10.448Z,53.13
2023-01-26T23:08:12.388Z,53.42
2023-01-26T23:23:15.899Z,56.20
2023-01-26T23:38:21.821Z,55.95
2023-01-26T23:53:24.258Z,51.08
